createdAt,value
2018-09-29T00:00:09.792Z,92.05
2018-09-29T00:02:39.181Z,92.52
2018-09-29T00:05:08.413Z,91.81
2018-09-29T00:07:37.678Z,92.07
2018-09-29T00:10:06.961Z,92.41
2018-09-29T00:12:37.395Z,92.18
2018-09-29T00:15:08.967Z,92.71
2018-09-29T00:17:38.262Z,92.85
2018-09-29T00:20:07.557Z,92.69
2018-09-29T00:22:36.810Z,93.47
2018-09-29T00:25:06.203Z,93.57
2018-09-29T00:27:35.393Z,93.24
2018-09-29T00:30:04.931Z,92.91
2018-09-29T00:32:35.328Z,93.34
2018-09-29T00:35:04.571Z,93.48
2018-09-29T00:37:33.844Z,93.58
2018-09-29T00:40:03.888Z,93.53
2018-09-29T00:42:33.151Z,93.33
2018-09-29T00:45:02.570Z,93.17
2018-09-29T00:47:31.829Z,93.77
2018-09-29T00:50:01.039Z,93.41
2018-09-29T00:52:30.419Z,93.78
2018-09-29T00:54:59.689Z,93.64
2018-09-29T00:57:29.225Z,93.37
2018-09-29T00:59:58.512Z,93.56
2018-09-29T01:02:27.711Z,94.27
2018-09-29T01:04:56.925Z,94.06
2018-09-29T01:07:26.257Z,93.92
2018-09-29T01:09:55.490Z,94.03
2018-09-29T01:12:24.695Z,94.11
2018-09-29T01:14:54.121Z,94.20
2018-09-29T01:17:23.414Z,93.71
2018-09-29T01:19:52.737Z,93.92
2018-09-29T01:22:21.986Z,93.46
2018-09-29T01:24:51.236Z,93.55
2018-09-29T01:27:20.493Z,93.62
2018-09-29T01:29:49.873Z,93.45
2018-09-29T01:32:20.197Z,93.36
2018-09-29T01:34:49.434Z,93.63
2018-09-29T01:37:18.790Z,93.49
2018-09-29T01:39:48.114Z,93.70
2018-09-29T01:42:17.590Z,93.53
2018-09-29T01:44:46.828Z,93.91
2018-09-29T01:47:16.118Z,93.74
2018-09-29T01:49:45.357Z,93.70
2018-09-29T01:52:14.554Z,93.95
2018-09-29T01:54:43.969Z,94.23
2018-09-29T01:57:13.194Z,94.38
2018-09-29T01:59:42.446Z,95.08
2018-09-29T02:02:11.738Z,94.75
2018-09-29T02:04:40.973Z,95.48
2018-09-29T02:07:10.340Z,95.56
2018-09-29T02:09:39.552Z,96.22
2018-09-29T02:12:08.958Z,96.33
2018-09-29T02:14:38.151Z,96.57
2018-09-29T02:17:07.370Z,96.27
2018-09-29T02:19:36.698Z,95.80
2018-09-29T02:22:05.957Z,96.00
2018-09-29T02:24:35.194Z,96.04
2018-09-29T02:27:04.516Z,95.90
2018-09-29T02:29:33.742Z,96.22
2018-09-29T02:32:02.987Z,96.39
2018-09-29T02:34:32.398Z,96.43
2018-09-29T02:37:01.802Z,96.32
2018-09-29T02:39:31.066Z,96.37
2018-09-29T02:42:00.473Z,95.74
2018-09-29T02:44:29.666Z,95.59
2018-09-29T02:46:58.935Z,95.68
2018-09-29T02:49:28.282Z,95.78
2018-09-29T02:51:57.502Z,96.18
2018-09-29T02:54:26.813Z,96.48
2018-09-29T02:56:56.041Z,95.95
2018-09-29T02:59:25.268Z,96.27
2018-09-29T03:01:54.483Z,96.24
2018-09-29T03:04:23.695Z,96.40
2018-09-29T03:06:52.908Z,96.02
2018-09-29T03:09:22.213Z,96.14
2018-09-29T03:11:51.442Z,95.85
2018-09-29T03:14:20.635Z,95.50
2018-09-29T03:16:49.873Z,96.02
2018-09-29T03:19:19.206Z,95.92
2018-09-29T03:21:48.388Z,95.81
2018-09-29T03:24:17.723Z,96.77
2018-09-29T03:26:46.958Z,96.55
2018-09-29T03:29:16.189Z,96.97
2018-09-29T03:31:45.607Z,96.96
2018-09-29T03:34:14.661Z,97.20
2018-09-29T03:36:43.906Z,97.79
2018-09-29T03:39:13.522Z,97.72
2018-09-29T03:41:42.742Z,97.60
2018-09-29T03:44:11.977Z,97.33
2018-09-29T03:46:41.198Z,97.49
2018-09-29T03:49:10.730Z,97.76
2018-09-29T03:51:39.937Z,97.49
2018-09-29T03:54:09.143Z,97.68
2018-09-29T03:56:38.456Z,97.81
2018-09-29T03:59:07.754Z,98.09
2018-09-29T04:01:37.034Z,97.75
2018-09-29T04:04:06.577Z,98.05
2018-09-29T04:06:35.800Z,98.37
2018-09-29T04:09:06.422Z,98.99
2018-09-29T04:11:36.535Z,98.46
2018-09-29T04:14:06.638Z,98.09
2018-09-29T04:16:35.849Z,98.49
2018-09-29T04:19:05.130Z,98.58
2018-09-29T04:21:42.490Z,98.72
2018-09-29T04:24:12.148Z,98.81
2018-09-29T04:26:44.301Z,99.24
2018-09-29T04:29:14.974Z,98.72
2018-09-29T04:31:44.454Z,98.25
2018-09-29T04:34:14.290Z,98.09
2018-09-29T04:36:43.913Z,97.77
2018-09-29T04:39:14.341Z,97.51
2018-09-29T04:41:43.538Z,98.01
2018-09-29T04:44:12.941Z,97.79
2018-09-29T04:46:42.629Z,97.69
2018-09-29T04:49:11.904Z,97.42
2018-09-29T04:51:41.151Z,97.83
2018-09-29T04:54:11.434Z,97.65
2018-09-29T04:56:40.622Z,97.71
2018-09-29T04:59:09.905Z,97.60
2018-09-29T05:01:39.162Z,98.16
2018-09-29T05:04:08.372Z,98.16
2018-09-29T05:06:37.783Z,98.43
2018-09-29T05:09:08.485Z,98.31
2018-09-29T05:11:37.679Z,98.50
2018-09-29T05:14:07.110Z,98.41
2018-09-29T05:16:36.254Z,98.24
2018-09-29T05:19:05.477Z,98.34
2018-09-29T05:21:34.777Z,97.65
2018-09-29T05:24:04.009Z,97.23
2018-09-29T05:26:33.309Z,97.20
2018-09-29T05:29:02.506Z,97.01
2018-09-29T05:31:31.716Z,96.80
2018-09-29T05:34:01.014Z,96.98
2018-09-29T05:36:30.198Z,97.04
2018-09-29T05:38:59.513Z,97.18
2018-09-29T05:41:28.877Z,97.47
2018-09-29T05:43:58.521Z,98.26
2018-09-29T05:46:27.801Z,97.97
2018-09-29T05:48:57.026Z,97.51
2018-09-29T05:51:26.278Z,96.96
2018-09-29T05:53:55.511Z,96.92
2018-09-29T05:56:24.690Z,97.40
2018-09-29T05:58:53.901Z,96.89
2018-09-29T06:01:23.260Z,96.52
2018-09-29T06:03:52.494Z,96.78
2018-09-29T06:06:21.701Z,97.54
2018-09-29T06:08:51.039Z,97.23
2018-09-29T06:11:20.294Z,97.00
2018-09-29T06:13:51.644Z,96.82
2018-09-29T06:16:22.976Z,96.38
2018-09-29T06:18:54.476Z,95.83
2018-09-29T06:21:27.131Z,95.73
2018-09-29T06:23:58.898Z,96.58
2018-09-29T06:26:30.833Z,95.97
2018-09-29T06:29:03.257Z,95.67
2018-09-29T06:31:36.224Z,95.25
2018-09-29T06:34:09.182Z,94.97
2018-09-29T06:36:42.607Z,94.30
2018-09-29T06:39:15.511Z,94.43
2018-09-29T06:41:48.711Z,94.97
2018-09-29T06:44:21.135Z,95.23
2018-09-29T06:46:52.629Z,94.13
2018-09-29T06:49:24.735Z,93.67
2018-09-29T06:51:56.074Z,93.78
2018-09-29T06:54:27.934Z,93.04
2018-09-29T06:57:00.058Z,91.60
2018-09-29T06:59:32.217Z,91.59
2018-09-29T07:02:04.246Z,91.26
2018-09-29T07:04:35.932Z,91.33
2018-09-29T07:07:08.125Z,91.12
2018-09-29T07:09:38.854Z,91.43
2018-09-29T07:12:11.038Z,93.02
2018-09-29T07:14:42.909Z,94.04
2018-09-29T07:17:14.098Z,93.63
2018-09-29T07:19:45.683Z,93.42
2018-09-29T07:22:17.599Z,92.67
2018-09-29T07:24:48.704Z,92.95
2018-09-29T07:27:20.699Z,92.31
2018-09-29T07:29:53.091Z,90.95
2018-09-29T07:32:26.026Z,90.75
2018-09-29T07:34:58.220Z,89.27
2018-09-29T07:37:29.435Z,88.42
2018-09-29T07:40:00.822Z,88.23
2018-09-29T07:42:32.025Z,87.56
2018-09-29T07:45:03.233Z,86.89
2018-09-29T07:47:34.724Z,86.67
2018-09-29T07:50:06.343Z,85.72
2018-09-29T07:52:35.689Z,85.18
2018-09-29T07:55:04.961Z,85.42
2018-09-29T07:57:35.281Z,85.65
2018-09-29T08:00:04.915Z,85.18
2018-09-29T08:02:34.168Z,84.76
2018-09-29T08:05:03.517Z,84.29
2018-09-29T08:07:32.729Z,84.23
2018-09-29T08:10:01.973Z,84.26
2018-09-29T08:12:31.254Z,84.21
2018-09-29T08:15:00.434Z,83.42
2018-09-29T08:17:29.701Z,82.95
2018-09-29T08:19:59.012Z,82.17
2018-09-29T08:22:28.255Z,81.00
2018-09-29T08:24:58.491Z,80.29
2018-09-29T08:27:27.756Z,80.35
2018-09-29T08:29:56.972Z,80.59
2018-09-29T08:32:26.368Z,79.72
2018-09-29T08:34:55.568Z,80.34
2018-09-29T08:37:24.797Z,78.47
2018-09-29T08:39:53.998Z,78.14
2018-09-29T08:42:23.276Z,76.28
2018-09-29T08:44:52.459Z,73.11
2018-09-29T08:47:21.681Z,69.88
2018-09-29T08:49:51.078Z,66.52
2018-09-29T08:52:20.281Z,64.06
2018-09-29T08:54:49.511Z,61.00
2018-09-29T08:57:18.934Z,58.80
2018-09-29T08:59:48.094Z,59.75
2018-09-29T09:02:17.390Z,61.94
2018-09-29T09:04:46.618Z,62.72
2018-09-29T09:07:15.873Z,61.66
2018-09-29T09:09:45.080Z,60.84
2018-09-29T09:12:14.345Z,60.39
2018-09-29T09:14:43.606Z,61.28
2018-09-29T09:17:12.834Z,62.75
2018-09-29T09:19:42.134Z,63.99
2018-09-29T09:22:11.386Z,66.19
2018-09-29T09:24:40.636Z,65.23
2018-09-29T09:27:09.953Z,66.37
2018-09-29T09:29:40.025Z,67.68
2018-09-29T09:32:11.329Z,67.86
2018-09-29T09:34:41.649Z,68.43
2018-09-29T09:37:10.907Z,68.04
2018-09-29T09:39:41.273Z,65.82
2018-09-29T09:42:10.535Z,61.67
2018-09-29T09:44:39.761Z,57.10
2018-09-29T09:47:09.060Z,51.69
2018-09-29T09:49:38.316Z,47.74
2018-09-29T09:52:07.546Z,44.91
2018-09-29T09:54:36.839Z,40.52
2018-09-29T09:57:06.427Z,38.79
2018-09-29T09:59:35.722Z,41.19
2018-09-29T10:02:10.244Z,38.24
2018-09-29T10:04:39.420Z,37.65
2018-09-29T10:07:10.014Z,37.42
2018-09-29T10:09:39.305Z,40.20
2018-09-29T10:12:08.574Z,42.97
2018-09-29T10:14:37.905Z,45.83
2018-09-29T10:17:07.151Z,46.21
2018-09-29T10:19:36.422Z,47.42
2018-09-29T10:22:05.715Z,46.71
2018-09-29T10:24:34.947Z,45.86
2018-09-29T10:27:04.234Z,44.10
2018-09-29T10:29:33.483Z,41.57
2018-09-29T10:32:04.807Z,41.86
2018-09-29T10:34:34.022Z,46.49
2018-09-29T10:37:03.438Z,46.72
2018-09-29T10:39:32.744Z,49.50
2018-09-29T10:42:01.985Z,50.10
2018-09-29T10:44:31.230Z,48.32
2018-09-29T10:47:00.477Z,46.41
2018-09-29T10:49:30.398Z,44.63
2018-09-29T10:51:59.685Z,44.49
2018-09-29T10:54:28.901Z,46.29
2018-09-29T10:56:58.342Z,45.32
2018-09-29T10:59:28.877Z,43.54
2018-09-29T11:01:58.693Z,42.39
2018-09-29T11:04:28.106Z,43.82
2018-09-29T11:06:57.367Z,43.62
2018-09-29T11:09:26.588Z,42.81
2018-09-29T11:11:57.053Z,42.62
2018-09-29T11:14:26.290Z,45.10
2018-09-29T11:16:55.594Z,42.31
2018-09-29T11:19:24.857Z,41.45
2018-09-29T11:21:54.085Z,43.55
2018-09-29T11:24:23.486Z,44.63
2018-09-29T11:26:52.763Z,45.77
2018-09-29T11:29:22.013Z,46.85
2018-09-29T11:31:51.321Z,49.30
2018-09-29T11:34:20.578Z,51.21
2018-09-29T11:36:50.827Z,52.81
2018-09-29T11:39:20.219Z,52.74
2018-09-29T11:41:49.501Z,50.78
2018-09-29T11:44:18.802Z,49.60
2018-09-29T11:46:48.058Z,49.01
2018-09-29T11:49:17.373Z,48.04
2018-09-29T11:51:46.689Z,48.68
2018-09-29T11:54:15.954Z,51.12
2018-09-29T11:56:45.203Z,51.61
2018-09-29T11:59:14.473Z,53.58
2018-09-29T12:01:43.741Z,53.67
2018-09-29T12:04:12.985Z,54.68
2018-09-29T12:06:42.265Z,56.23
2018-09-29T12:09:12.962Z,57.94
2018-09-29T12:11:42.633Z,58.81
2018-09-29T12:14:11.871Z,59.24
2018-09-29T12:16:41.090Z,60.54
2018-09-29T12:19:10.457Z,60.77
2018-09-29T12:21:39.742Z,60.26
2018-09-29T12:24:11.139Z,60.58
2018-09-29T12:26:40.386Z,60.81
2018-09-29T12:29:09.620Z,61.04
2018-09-29T12:31:38.982Z,61.08
2018-09-29T12:34:08.223Z,62.06
2018-09-29T12:36:37.528Z,62.69
2018-09-29T12:39:08.171Z,61.20
2018-09-29T12:41:37.681Z,62.82
2018-09-29T12:44:07.045Z,62.28
2018-09-29T12:46:36.270Z,61.13
2018-09-29T12:49:05.555Z,61.50
2018-09-29T12:51:35.013Z,62.27
2018-09-29T12:54:04.194Z,62.62
2018-09-29T12:56:33.400Z,61.86
2018-09-29T12:59:04.775Z,62.18
2018-09-29T13:01:34.054Z,63.07
2018-09-29T13:04:03.337Z,64.07
2018-09-29T13:06:32.529Z,63.94
2018-09-29T13:09:01.776Z,63.77
2018-09-29T13:11:31.002Z,63.64
2018-09-29T13:14:00.467Z,63.90
2018-09-29T13:16:29.619Z,64.84
2018-09-29T13:18:58.818Z,65.39
2018-09-29T13:21:28.041Z,66.04
2018-09-29T13:23:57.358Z,65.62
2018-09-29T13:26:26.581Z,65.63
2018-09-29T13:28:55.817Z,66.01
2018-09-29T13:31:25.169Z,66.58
2018-09-29T13:33:54.387Z,67.00
2018-09-29T13:36:23.680Z,67.55
2018-09-29T13:38:52.918Z,67.97
2018-09-29T13:41:22.118Z,69.10
2018-09-29T13:43:52.442Z,71.01
2018-09-29T13:46:21.786Z,72.58
2018-09-29T13:48:51.038Z,73.40
2018-09-29T13:51:20.357Z,75.61
2018-09-29T13:53:49.696Z,76.43
2018-09-29T13:56:18.841Z,77.19
2018-09-29T13:58:48.526Z,77.57
2018-09-29T14:01:17.911Z,77.13
2018-09-29T14:03:47.169Z,77.72
2018-09-29T14:06:16.515Z,77.75
2018-09-29T14:08:52.521Z,77.83
2018-09-29T14:11:21.755Z,77.45
2018-09-29T14:13:51.034Z,77.31
2018-09-29T14:16:20.354Z,77.18
2018-09-29T14:18:49.615Z,76.53
2018-09-29T14:21:18.894Z,74.80
2018-09-29T14:23:48.129Z,74.02
2018-09-29T14:26:17.421Z,73.95
2018-09-29T14:28:46.634Z,73.33
2018-09-29T14:31:16.061Z,72.36
2018-09-29T14:33:45.592Z,70.77
2018-09-29T14:36:14.848Z,69.79
2018-09-29T14:38:44.109Z,70.25
2018-09-29T14:41:13.454Z,71.00
2018-09-29T14:43:42.674Z,70.87
2018-09-29T14:46:12.051Z,70.86
2018-09-29T14:48:41.279Z,70.91
2018-09-29T14:51:10.524Z,71.79
2018-09-29T14:53:39.858Z,71.36
2018-09-29T14:56:09.083Z,71.98
2018-09-29T14:58:38.522Z,71.87
2018-09-29T15:01:08.146Z,72.66
2018-09-29T15:03:37.418Z,72.85
2018-09-29T15:06:06.643Z,72.82
2018-09-29T15:08:35.930Z,72.28
2018-09-29T15:11:05.186Z,72.74
2018-09-29T15:13:34.449Z,73.39
2018-09-29T15:16:03.769Z,72.79
2018-09-29T15:18:34.032Z,72.47
2018-09-29T15:21:03.646Z,73.37
2018-09-29T15:23:32.895Z,73.54
2018-09-29T15:26:07.643Z,72.94
2018-09-29T15:28:57.982Z,73.28
2018-09-29T15:31:27.421Z,72.23
2018-09-29T15:33:56.774Z,71.68
2018-09-29T15:36:26.017Z,71.07
2018-09-29T15:38:55.260Z,70.96
2018-09-29T15:41:24.728Z,71.73
2018-09-29T15:43:53.942Z,72.21
2018-09-29T15:46:23.227Z,71.37
2018-09-29T15:48:52.501Z,72.32
2018-09-29T15:51:21.737Z,71.32
2018-09-29T15:53:50.969Z,71.71
2018-09-29T15:56:20.206Z,71.04
2018-09-29T15:58:49.492Z,71.36
2018-09-29T16:01:18.810Z,70.50
2018-09-29T16:03:48.085Z,70.37
2018-09-29T16:06:17.332Z,70.43
2018-09-29T16:08:46.672Z,70.10
2018-09-29T16:11:15.962Z,70.09
2018-09-29T16:13:45.196Z,71.72
2018-09-29T16:16:14.460Z,71.48
2018-09-29T16:18:43.818Z,71.52
2018-09-29T16:21:13.146Z,71.82
2018-09-29T16:23:42.385Z,72.03
2018-09-29T16:27:37.192Z,71.99
2018-09-29T16:30:06.918Z,73.07
2018-09-29T16:32:36.179Z,72.29
2018-09-29T16:35:06.369Z,72.46
2018-09-29T16:37:35.622Z,72.16
2018-09-29T16:40:04.899Z,71.95
2018-09-29T16:42:34.325Z,71.72
2018-09-29T16:45:03.588Z,72.78
2018-09-29T16:47:32.782Z,72.75
2018-09-29T16:50:02.082Z,73.08
2018-09-29T16:52:31.318Z,73.74
2018-09-29T16:55:00.554Z,74.13
2018-09-29T16:57:29.952Z,73.86
2018-09-29T16:59:59.185Z,74.28
2018-09-29T17:02:28.420Z,73.94
2018-09-29T17:04:57.691Z,74.55
2018-09-29T17:07:26.944Z,73.96
2018-09-29T17:11:20.789Z,74.44
2018-09-29T17:13:50.053Z,74.28
2018-09-29T17:16:19.277Z,74.21
2018-09-29T17:18:48.598Z,74.78
2018-09-29T17:21:18.008Z,74.11
2018-09-29T17:23:47.213Z,74.10
2018-09-29T17:26:16.553Z,73.88
2018-09-29T17:28:45.796Z,74.86
2018-09-29T17:31:15.064Z,74.63
2018-09-29T17:33:44.421Z,75.37
2018-09-29T17:36:13.668Z,74.78
2018-09-29T17:38:43.049Z,75.97
2018-09-29T17:41:12.457Z,75.69
2018-09-29T17:43:41.666Z,75.67
2018-09-29T17:46:10.899Z,75.64
2018-09-29T17:48:40.430Z,75.44
2018-09-29T17:51:09.911Z,76.63
2018-09-29T17:53:39.223Z,76.70
2018-09-29T17:56:08.492Z,76.15
2018-09-29T17:58:38.339Z,76.94
2018-09-29T18:01:07.624Z,76.58
2018-09-29T18:03:36.845Z,76.01
2018-09-29T18:06:06.157Z,76.98
2018-09-29T18:08:35.460Z,77.74
2018-09-29T18:11:04.677Z,78.31
2018-09-29T18:13:33.972Z,78.05
2018-09-29T18:16:03.307Z,78.83
2018-09-29T18:18:32.614Z,78.53
2018-09-29T18:21:01.826Z,78.66
2018-09-29T18:23:32.126Z,79.83
2018-09-29T18:26:01.339Z,79.44
2018-09-29T18:28:30.588Z,79.37
2018-09-29T18:30:59.935Z,79.32
2018-09-29T18:33:29.163Z,78.75
2018-09-29T18:35:58.406Z,79.05
2018-09-29T18:38:27.749Z,79.58
2018-09-29T18:40:57.056Z,80.45
2018-09-29T18:43:26.309Z,80.28
2018-09-29T18:45:55.726Z,80.26
2018-09-29T18:48:24.921Z,80.52
2018-09-29T18:50:54.145Z,81.46
2018-09-29T18:53:23.554Z,81.39
2018-09-29T18:55:52.816Z,81.07
2018-09-29T18:58:22.150Z,82.08
2018-09-29T19:00:51.630Z,81.61
2018-09-29T19:03:20.843Z,82.41
2018-09-29T19:05:50.060Z,82.18
2018-09-29T19:08:19.418Z,82.18
2018-09-29T19:10:48.733Z,82.04
2018-09-29T19:13:18.731Z,81.57
2018-09-29T19:15:48.278Z,82.11
2018-09-29T19:18:18.292Z,82.52
2018-09-29T19:20:47.519Z,82.67
2018-09-29T19:23:16.971Z,82.56
2018-09-29T19:25:46.229Z,83.15
2018-09-29T19:28:15.498Z,82.95
2018-09-29T19:30:47.078Z,83.27
2018-09-29T19:33:16.339Z,82.83
2018-09-29T19:35:45.555Z,81.96
2018-09-29T19:38:17.500Z,82.25
2018-09-29T19:40:47.722Z,81.93
2018-09-29T19:43:17.074Z,82.51
2018-09-29T19:45:46.480Z,82.70
2018-09-29T19:48:15.708Z,83.47
2018-09-29T19:50:45.226Z,83.33
2018-09-29T19:53:14.518Z,84.54
2018-09-29T19:55:43.733Z,84.78
2018-09-29T19:58:13.004Z,84.60
2018-09-29T20:00:42.265Z,84.27
2018-09-29T20:03:11.533Z,85.22
2018-09-29T20:05:41.797Z,85.73
2018-09-29T20:08:11.907Z,85.46
2018-09-29T20:10:41.187Z,85.10
2018-09-29T20:13:10.377Z,85.17
2018-09-29T20:15:39.585Z,85.01
2018-09-29T20:18:08.870Z,85.07
2018-09-29T20:20:38.078Z,85.92
2018-09-29T20:23:07.429Z,85.93
2018-09-29T20:25:36.758Z,86.53
2018-09-29T20:28:06.078Z,86.22
2018-09-29T20:30:35.372Z,86.57
2018-09-29T20:33:04.718Z,86.10
2018-09-29T20:35:35.080Z,86.05
2018-09-29T20:38:04.376Z,86.72
2018-09-29T20:40:33.617Z,86.91
2018-09-29T20:43:06.894Z,87.20
2018-09-29T20:45:36.109Z,87.42
2018-09-29T20:48:05.357Z,86.73
2018-09-29T20:50:34.650Z,86.85
2018-09-29T20:53:03.901Z,87.09
2018-09-29T20:55:33.180Z,86.93
2018-09-29T20:58:02.689Z,86.80
2018-09-29T21:00:31.937Z,87.81
2018-09-29T21:03:01.178Z,87.99
2018-09-29T21:05:30.516Z,87.97
2018-09-29T21:07:59.783Z,87.98
2018-09-29T21:10:29.042Z,87.73
2018-09-29T21:12:58.489Z,87.98
2018-09-29T21:15:27.628Z,88.31
2018-09-29T21:17:56.906Z,88.58
2018-09-29T21:20:26.397Z,88.27
2018-09-29T21:22:55.714Z,88.33
2018-09-29T21:25:25.264Z,88.57
2018-09-29T21:27:54.597Z,88.10
2018-09-29T21:30:23.809Z,88.46
2018-09-29T21:32:53.021Z,88.61
2018-09-29T21:35:22.292Z,87.89
2018-09-29T21:37:51.506Z,87.95
2018-09-29T21:40:21.110Z,87.67
2018-09-29T21:42:50.321Z,87.27
2018-09-29T21:45:19.562Z,86.94
2018-09-29T21:47:48.906Z,87.09
2018-09-29T21:50:18.174Z,87.51
2018-09-29T21:52:47.423Z,86.57
2018-09-29T21:55:16.651Z,86.35
2018-09-29T21:57:45.878Z,86.70
2018-09-29T22:00:21.365Z,86.17
2018-09-29T22:02:50.585Z,86.44
2018-09-29T22:05:19.902Z,86.29
2018-09-29T22:07:49.233Z,86.58
2018-09-29T22:10:18.587Z,85.50
2018-09-29T22:12:47.787Z,85.76
2018-09-29T22:15:17.239Z,86.05
2018-09-29T22:17:46.470Z,86.39
2018-09-29T22:20:15.683Z,86.45
2018-09-29T22:22:44.941Z,86.42
2018-09-29T22:25:14.189Z,86.66
2018-09-29T22:27:44.450Z,86.39
2018-09-29T22:30:13.751Z,86.57
2018-09-29T22:32:42.981Z,86.55
2018-09-29T22:35:12.330Z,86.54
2018-09-29T22:37:41.758Z,86.75
2018-09-29T22:40:11.036Z,86.96
2018-09-29T22:42:40.271Z,86.63
2018-09-29T22:45:09.559Z,87.00
2018-09-29T22:47:38.841Z,86.74
2018-09-29T22:50:08.090Z,86.13
2018-09-29T22:52:37.392Z,86.37
2018-09-29T22:55:06.615Z,86.80
2018-09-29T22:57:36.763Z,86.65
2018-09-29T23:00:07.358Z,86.54
2018-09-29T23:02:36.580Z,86.89
2018-09-29T23:05:05.798Z,87.13
2018-09-29T23:07:36.147Z,86.24
2018-09-29T23:10:05.454Z,87.03
2018-09-29T23:12:34.701Z,87.00
2018-09-29T23:15:03.990Z,87.98
2018-09-29T23:17:33.214Z,87.15
2018-09-29T23:20:02.491Z,87.55
2018-09-29T23:22:31.785Z,86.95
2018-09-29T23:25:01.095Z,86.92
2018-09-29T23:27:30.421Z,86.39
2018-09-29T23:29:59.725Z,86.44
2018-09-29T23:32:28.954Z,86.30
2018-09-29T23:34:58.181Z,86.16
2018-09-29T23:37:27.550Z,86.71
2018-09-29T23:39:56.841Z,86.38
2018-09-29T23:42:26.089Z,86.62
2018-09-29T23:44:55.313Z,86.32
2018-09-29T23:47:24.499Z,86.60
2018-09-29T23:49:53.704Z,86.90
2018-09-29T23:52:23.021Z,86.77
2018-09-29T23:54:52.215Z,86.52
2018-09-29T23:57:21.409Z,86.77
2018-09-29T23:59:50.766Z,87.37
